createdAt,value
2023-04-26T00:00:43.489Z,488.00
2023-04-26T00:01:43.508Z,491.00
2023-04-26T00:02:43.615Z,491.00
2023-04-26T00:03:43.736Z,491.00
2023-04-26T00:04:43.829Z,489.00
2023-04-26T00:05:43.674Z,489.00
2023-04-26T00:06:43.859Z,488.00
2023-04-26T00:07:43.682Z,488.00
2023-04-26T00:08:43.801Z,490.00
2023-04-26T00:09:43.784Z,491.00
2023-04-26T00:10:43.790Z,493.00
2023-04-26T00:11:43.832Z,494.00
2023-04-26T00:12:43.855Z,493.00
2023-04-26T00:13:43.900Z,493.00
2023-04-26T00:14:43.904Z,493.00
2023-04-26T00:15:43.974Z,494.00
2023-04-26T00:16:44.097Z,494.00
2023-04-26T00:17:44.092Z,493.00
2023-04-26T00:18:44.032Z,495.00
2023-04-26T00:19:44.156Z,495.00
2023-04-26T00:20:44.128Z,494.00
2023-04-26T00:21:44.154Z,493.00
2023-04-26T00:22:44.197Z,494.00
2023-04-26T00:23:44.255Z,496.00
2023-04-26T00:24:44.285Z,497.00
2023-04-26T00:25:44.394Z,497.00
2023-04-26T00:26:44.360Z,495.00
2023-04-26T00:27:44.368Z,491.00
2023-04-26T00:28:44.416Z,490.00
2023-04-26T00:29:44.488Z,488.00
2023-04-26T00:30:44.454Z,487.00
2023-04-26T00:31:44.596Z,487.00
2023-04-26T00:32:44.632Z,489.00
2023-04-26T00:33:44.613Z,489.00
2023-04-26T00:34:44.664Z,490.00
2023-04-26T00:35:44.660Z,491.00
2023-04-26T00:36:44.681Z,491.00
2023-04-26T00:37:44.755Z,491.00
2023-04-26T00:38:44.791Z,488.00
2023-04-26T00:39:44.797Z,487.00
2023-04-26T00:40:44.872Z,486.00
2023-04-26T00:41:44.891Z,486.00
2023-04-26T00:42:45.851Z,487.00
2023-04-26T00:43:44.938Z,489.00
2023-04-26T00:44:44.998Z,491.00
2023-04-26T00:45:45.099Z,493.00
2023-04-26T00:46:45.020Z,493.00
2023-04-26T00:47:45.087Z,493.00
2023-04-26T00:48:45.151Z,494.00
2023-04-26T00:49:45.180Z,494.00
2023-04-26T00:50:45.249Z,498.00
2023-04-26T00:51:45.379Z,497.00
2023-04-26T00:52:45.300Z,499.00
2023-04-26T00:53:45.362Z,499.00
2023-04-26T00:54:45.339Z,499.00
2023-04-26T00:55:45.466Z,498.00
2023-04-26T00:56:45.436Z,497.00
2023-04-26T00:57:45.491Z,496.00
2023-04-26T00:58:45.540Z,494.00
2023-04-26T00:59:45.549Z,495.00
2023-04-26T01:00:45.641Z,495.00
2023-04-26T01:01:45.652Z,496.00
2023-04-26T01:02:45.746Z,496.00
2023-04-26T01:03:45.855Z,497.00
2023-04-26T01:04:45.752Z,498.00
2023-04-26T01:05:45.805Z,498.00
2023-04-26T01:06:45.923Z,496.00
2023-04-26T01:07:45.877Z,496.00
2023-04-26T01:08:45.922Z,494.00
2023-04-26T01:09:45.991Z,495.00
2023-04-26T01:10:46.005Z,494.00
2023-04-26T01:11:46.045Z,495.00
2023-04-26T01:12:46.110Z,498.00
2023-04-26T01:13:46.849Z,501.00
2023-04-26T01:14:46.171Z,499.00
2023-04-26T01:15:46.244Z,499.00
2023-04-26T01:16:46.283Z,500.00
2023-04-26T01:17:46.347Z,500.00
2023-04-26T01:18:46.352Z,498.00
2023-04-26T01:19:47.327Z,498.00
2023-04-26T01:20:46.410Z,499.00
2023-04-26T01:21:46.478Z,495.00
2023-04-26T01:22:46.558Z,496.00
2023-04-26T01:23:46.542Z,493.00
2023-04-26T01:24:46.676Z,493.00
2023-04-26T01:25:46.698Z,491.00
2023-04-26T01:26:46.829Z,491.00
2023-04-26T01:27:46.734Z,492.00
2023-04-26T01:28:46.778Z,493.00
2023-04-26T01:29:46.804Z,491.00
2023-04-26T01:30:46.870Z,490.00
2023-04-26T01:31:46.977Z,488.00
2023-04-26T01:32:46.999Z,487.00
2023-04-26T01:33:46.975Z,485.00
2023-04-26T01:34:47.049Z,485.00
2023-04-26T01:35:47.077Z,485.00
2023-04-26T01:36:47.169Z,485.00
2023-04-26T01:37:47.210Z,485.00
2023-04-26T01:38:47.284Z,485.00
2023-04-26T01:39:47.280Z,485.00
2023-04-26T01:40:47.286Z,486.00
2023-04-26T01:41:47.363Z,488.00
2023-04-26T01:42:47.446Z,487.00
2023-04-26T01:43:47.443Z,487.00
2023-04-26T01:44:47.529Z,489.00
2023-04-26T01:45:47.696Z,488.00
2023-04-26T01:46:47.690Z,485.00
2023-04-26T01:47:47.631Z,484.00
2023-04-26T01:48:47.684Z,486.00
2023-04-26T01:49:47.727Z,485.00
2023-04-26T01:50:47.764Z,486.00
2023-04-26T01:51:47.815Z,487.00
2023-04-26T01:52:47.880Z,487.00
2023-04-26T01:53:47.892Z,488.00
2023-04-26T01:54:48.042Z,489.00
2023-04-26T01:55:47.965Z,485.00
2023-04-26T01:56:48.049Z,486.00
2023-04-26T01:57:48.093Z,486.00
2023-04-26T01:58:48.127Z,488.00
2023-04-26T01:59:48.210Z,487.00
2023-04-26T02:00:48.227Z,486.00
2023-04-26T02:01:48.326Z,482.00
2023-04-26T02:02:48.394Z,484.00
2023-04-26T02:03:48.395Z,486.00
2023-04-26T02:04:48.439Z,487.00
2023-04-26T02:05:48.547Z,485.00
2023-04-26T02:06:48.513Z,484.00
2023-04-26T02:07:48.579Z,484.00
2023-04-26T02:08:48.615Z,486.00
2023-04-26T02:09:48.658Z,487.00
2023-04-26T02:10:48.694Z,489.00
2023-04-26T02:11:48.749Z,488.00
2023-04-26T02:12:48.777Z,485.00
2023-04-26T02:13:48.847Z,485.00
2023-04-26T02:14:48.897Z,484.00
2023-04-26T02:15:48.973Z,484.00
2023-04-26T02:16:48.943Z,484.00
2023-04-26T02:17:49.059Z,483.00
2023-04-26T02:18:49.092Z,483.00
2023-04-26T02:19:49.120Z,483.00
2023-04-26T02:20:49.209Z,484.00
2023-04-26T02:21:49.240Z,484.00
2023-04-26T02:22:49.251Z,482.00
2023-04-26T02:23:49.328Z,482.00
2023-04-26T02:24:49.381Z,481.00
2023-04-26T02:25:49.423Z,481.00
2023-04-26T02:26:49.450Z,481.00
2023-04-26T02:27:49.521Z,480.00
2023-04-26T02:28:49.713Z,480.00
2023-04-26T02:29:49.594Z,480.00
2023-04-26T02:30:49.654Z,480.00
2023-04-26T02:31:49.720Z,478.00
2023-04-26T02:32:49.798Z,478.00
2023-04-26T02:33:49.762Z,479.00
2023-04-26T02:34:49.851Z,479.00
2023-04-26T02:35:49.891Z,480.00
2023-04-26T02:36:49.931Z,481.00
2023-04-26T02:37:49.960Z,478.00
2023-04-26T02:38:50.163Z,478.00
2023-04-26T02:39:50.100Z,478.00
2023-04-26T02:40:50.087Z,480.00
2023-04-26T02:41:50.106Z,480.00
2023-04-26T02:42:50.140Z,480.00
2023-04-26T02:43:50.232Z,480.00
2023-04-26T02:44:50.309Z,482.00
2023-04-26T02:45:50.353Z,484.00
2023-04-26T02:46:50.420Z,482.00
2023-04-26T02:47:50.477Z,482.00
2023-04-26T02:48:50.667Z,486.00
2023-04-26T02:49:50.588Z,484.00
2023-04-26T02:50:50.531Z,485.00
2023-04-26T02:51:50.602Z,484.00
2023-04-26T02:52:50.630Z,481.00
2023-04-26T02:53:50.668Z,482.00
2023-04-26T02:54:50.740Z,482.00
2023-04-26T02:55:50.777Z,481.00
2023-04-26T02:56:50.810Z,482.00
2023-04-26T02:57:50.843Z,481.00
2023-04-26T02:58:51.089Z,482.00
2023-04-26T02:59:50.928Z,484.00
2023-04-26T03:00:51.027Z,482.00
2023-04-26T03:01:51.102Z,482.00
2023-04-26T03:02:51.397Z,481.00
2023-04-26T03:03:51.177Z,479.00
2023-04-26T03:04:51.172Z,477.00
2023-04-26T03:05:51.223Z,477.00
2023-04-26T03:06:51.261Z,476.00
2023-04-26T03:07:51.268Z,476.00
2023-04-26T03:08:51.548Z,476.00
2023-04-26T03:09:51.355Z,479.00
2023-04-26T03:10:51.461Z,480.00
2023-04-26T03:11:51.485Z,479.00
2023-04-26T03:12:51.500Z,478.00
2023-04-26T03:13:51.572Z,476.00
2023-04-26T03:14:51.656Z,479.00
2023-04-26T03:15:51.647Z,478.00
2023-04-26T03:16:51.736Z,477.00
2023-04-26T03:17:51.833Z,478.00
2023-04-26T03:18:51.974Z,479.00
2023-04-26T03:19:51.881Z,480.00
2023-04-26T03:20:51.918Z,475.00
2023-04-26T03:21:52.008Z,474.00
2023-04-26T03:22:51.958Z,474.00
2023-04-26T03:23:52.051Z,473.00
2023-04-26T03:24:52.267Z,472.00
2023-04-26T03:25:52.139Z,472.00
2023-04-26T03:26:52.120Z,473.00
2023-04-26T03:27:52.270Z,474.00
2023-04-26T03:28:52.666Z,475.00
2023-04-26T03:29:52.409Z,476.00
2023-04-26T03:30:52.306Z,475.00
2023-04-26T03:31:52.404Z,472.00
2023-04-26T03:32:52.493Z,473.00
2023-04-26T03:33:52.446Z,473.00
2023-04-26T03:34:52.446Z,474.00
2023-04-26T03:35:52.514Z,473.00
2023-04-26T03:36:52.561Z,473.00
2023-04-26T03:37:53.507Z,473.00
2023-04-26T03:38:52.834Z,474.00
2023-04-26T03:39:52.759Z,473.00
2023-04-26T03:40:52.715Z,474.00
2023-04-26T03:41:52.804Z,474.00
2023-04-26T03:42:52.862Z,476.00
2023-04-26T03:43:52.901Z,478.00
2023-04-26T03:44:52.916Z,478.00
2023-04-26T03:45:52.962Z,479.00
2023-04-26T03:46:53.078Z,477.00
2023-04-26T03:47:53.210Z,476.00
2023-04-26T03:48:53.411Z,478.00
2023-04-26T03:49:53.199Z,478.00
2023-04-26T03:50:53.218Z,481.00
2023-04-26T03:51:53.324Z,482.00
2023-04-26T03:52:53.324Z,482.00
2023-04-26T03:53:53.347Z,481.00
2023-04-26T03:54:53.369Z,483.00
2023-04-26T03:55:53.461Z,483.00
2023-04-26T03:56:53.454Z,480.00
2023-04-26T03:57:53.550Z,479.00
2023-04-26T03:58:53.798Z,479.00
2023-04-26T03:59:53.614Z,481.00
2023-04-26T04:00:53.752Z,481.00
2023-04-26T04:01:53.690Z,482.00
2023-04-26T04:02:53.853Z,481.00
2023-04-26T04:03:54.011Z,482.00
2023-04-26T04:04:54.022Z,481.00
2023-04-26T04:05:53.896Z,483.00
2023-04-26T04:06:53.939Z,480.00
2023-04-26T04:07:53.982Z,479.00
2023-04-26T04:08:54.392Z,477.00
2023-04-26T04:09:54.043Z,474.00
2023-04-26T04:10:54.114Z,473.00
2023-04-26T04:11:54.243Z,474.00
2023-04-26T04:12:54.160Z,474.00
2023-04-26T04:13:54.238Z,472.00
2023-04-26T04:14:54.278Z,472.00
2023-04-26T04:15:54.476Z,474.00
2023-04-26T04:16:54.397Z,477.00
2023-04-26T04:17:54.507Z,479.00
2023-04-26T04:18:54.657Z,476.00
2023-04-26T04:19:54.529Z,477.00
2023-04-26T04:20:54.557Z,479.00
2023-04-26T04:21:54.592Z,479.00
2023-04-26T04:22:54.613Z,480.00
2023-04-26T04:23:54.689Z,479.00
2023-04-26T04:24:54.779Z,479.00
2023-04-26T04:25:54.797Z,477.00
2023-04-26T04:26:54.838Z,477.00
2023-04-26T04:27:54.895Z,477.00
2023-04-26T04:28:55.133Z,479.00
2023-04-26T04:29:54.990Z,479.00
2023-04-26T04:30:55.132Z,479.00
2023-04-26T04:31:55.119Z,479.00
2023-04-26T04:32:55.132Z,480.00
2023-04-26T04:33:55.242Z,482.00
2023-04-26T04:34:55.284Z,480.00
2023-04-26T04:35:55.348Z,479.00
2023-04-26T04:36:55.351Z,478.00
2023-04-26T04:37:55.419Z,476.00
2023-04-26T04:38:55.515Z,477.00
2023-04-26T04:39:55.473Z,476.00
2023-04-26T04:40:55.532Z,476.00
2023-04-26T04:41:55.587Z,477.00
2023-04-26T04:42:55.681Z,476.00
2023-04-26T04:43:55.765Z,475.00
2023-04-26T04:44:55.749Z,475.00
2023-04-26T04:45:55.875Z,476.00
2023-04-26T04:46:55.902Z,476.00
2023-04-26T04:47:56.067Z,476.00
2023-04-26T04:48:55.966Z,475.00
2023-04-26T04:49:56.010Z,477.00
2023-04-26T04:50:56.102Z,475.00
2023-04-26T04:51:56.141Z,476.00
2023-04-26T04:52:56.184Z,476.00
2023-04-26T04:53:56.183Z,475.00
2023-04-26T04:54:56.413Z,475.00
2023-04-26T04:55:56.300Z,474.00
2023-04-26T04:56:56.364Z,473.00
2023-04-26T04:57:56.449Z,471.00
2023-04-26T04:58:56.481Z,472.00
2023-04-26T04:59:56.535Z,474.00
2023-04-26T05:00:56.580Z,475.00
2023-04-26T05:01:56.652Z,477.00
2023-04-26T05:02:56.813Z,475.00
2023-04-26T05:03:57.075Z,474.00
2023-04-26T05:04:56.753Z,471.00
2023-04-26T05:05:56.811Z,469.00
2023-04-26T05:06:56.853Z,469.00
2023-04-26T05:07:56.902Z,469.00
2023-04-26T05:08:56.932Z,470.00
2023-04-26T05:09:56.969Z,471.00
2023-04-26T05:10:57.078Z,471.00
2023-04-26T05:11:57.109Z,473.00
2023-04-26T05:12:57.134Z,476.00
2023-04-26T05:13:57.312Z,476.00
2023-04-26T05:14:57.216Z,475.00
2023-04-26T05:15:57.309Z,475.00
2023-04-26T05:16:57.363Z,474.00
2023-04-26T05:17:57.337Z,476.00
2023-04-26T05:18:57.386Z,481.00
2023-04-26T05:19:57.427Z,482.00
2023-04-26T05:20:57.500Z,484.00
2023-04-26T05:21:57.548Z,483.00
2023-04-26T05:22:57.553Z,482.00
2023-04-26T05:23:57.594Z,481.00
2023-04-26T05:24:57.640Z,479.00
2023-04-26T05:25:57.759Z,479.00
2023-04-26T05:26:57.749Z,477.00
2023-04-26T05:27:57.791Z,477.00
2023-04-26T05:28:57.829Z,479.00
2023-04-26T05:29:57.919Z,477.00
2023-04-26T05:30:57.901Z,477.00
2023-04-26T05:31:58.006Z,477.00
2023-04-26T05:32:58.019Z,508.00
2023-04-26T05:33:58.058Z,504.00
2023-04-26T05:34:58.395Z,510.00
2023-04-26T05:35:58.218Z,526.00
2023-04-26T05:36:58.297Z,540.00
2023-04-26T05:37:58.310Z,554.00
2023-04-26T05:38:58.427Z,600.00
2023-04-26T05:39:58.416Z,612.00
2023-04-26T05:40:58.480Z,615.00
2023-04-26T05:41:58.512Z,621.00
2023-04-26T05:42:58.957Z,639.00
2023-04-26T05:43:58.607Z,664.00
2023-04-26T05:44:58.588Z,681.00
2023-04-26T05:45:58.626Z,689.00
2023-04-26T05:46:58.570Z,724.00
2023-04-26T05:47:58.673Z,737.00
2023-04-26T05:48:58.670Z,737.00
2023-04-26T05:49:58.743Z,703.00
2023-04-26T05:50:58.771Z,698.00
2023-04-26T05:51:58.889Z,711.00
2023-04-26T05:52:58.919Z,708.00
2023-04-26T05:53:58.969Z,715.00
2023-04-26T05:54:59.089Z,721.00
2023-04-26T05:55:59.100Z,723.00
2023-04-26T05:56:59.434Z,724.00
2023-04-26T05:57:59.234Z,722.00
2023-04-26T05:58:59.312Z,719.00
2023-04-26T05:59:59.380Z,719.00
2023-04-26T06:00:59.558Z,721.00
2023-04-26T06:01:59.510Z,724.00
2023-04-26T06:02:59.607Z,725.00
2023-04-26T06:04:01.102Z,727.00
2023-04-26T06:04:59.831Z,726.00
2023-04-26T06:05:59.852Z,727.00
2023-04-26T06:06:59.808Z,727.00
2023-04-26T06:07:59.881Z,731.00
2023-04-26T06:08:59.905Z,749.00
2023-04-26T06:09:59.961Z,777.00
2023-04-26T06:11:00.014Z,783.00
2023-04-26T06:12:00.103Z,789.00
2023-04-26T06:13:00.151Z,814.00
2023-04-26T06:14:00.193Z,811.00
2023-04-26T06:15:00.182Z,808.00
2023-04-26T06:16:00.274Z,804.00
2023-04-26T06:17:00.562Z,809.00
2023-04-26T06:18:00.334Z,809.00
2023-04-26T06:19:00.376Z,807.00
2023-04-26T06:20:00.430Z,803.00
2023-04-26T06:21:00.444Z,818.00
2023-04-26T06:22:00.450Z,817.00
2023-04-26T06:23:00.492Z,822.00
2023-04-26T06:24:00.546Z,837.00
2023-04-26T06:25:00.968Z,838.00
2023-04-26T06:26:00.605Z,832.00
2023-04-26T06:27:00.680Z,828.00
2023-04-26T06:28:00.690Z,826.00
2023-04-26T06:29:00.756Z,830.00
2023-04-26T06:30:00.957Z,833.00
2023-04-26T06:31:00.760Z,826.00
2023-04-26T06:32:00.774Z,823.00
2023-04-26T06:33:00.888Z,812.00
2023-04-26T06:34:00.725Z,848.00
2023-04-26T06:35:00.726Z,843.00
2023-04-26T06:36:00.707Z,850.00
2023-04-26T06:37:00.769Z,846.00
2023-04-26T06:38:00.791Z,839.00
2023-04-26T06:39:00.797Z,849.00
2023-04-26T06:40:00.859Z,855.00
2023-04-26T06:41:00.944Z,863.00
2023-04-26T06:42:01.054Z,876.00
2023-04-26T06:43:01.023Z,870.00
2023-04-26T06:44:01.047Z,816.00
2023-04-26T06:45:01.114Z,798.00
2023-04-26T06:46:01.545Z,728.00
2023-04-26T06:47:01.141Z,708.00
2023-04-26T06:48:01.192Z,691.00
2023-04-26T06:49:01.229Z,679.00
2023-04-26T06:50:01.266Z,673.00
2023-04-26T06:51:01.207Z,676.00
2023-04-26T06:52:01.396Z,698.00
2023-04-26T06:53:01.234Z,707.00
2023-04-26T06:54:01.283Z,701.00
2023-04-26T06:55:01.326Z,697.00
2023-04-26T06:56:01.383Z,693.00
2023-04-26T06:57:01.711Z,690.00
2023-04-26T06:58:01.461Z,679.00
2023-04-26T06:59:01.610Z,666.00
2023-04-26T07:00:01.529Z,655.00
2023-04-26T07:01:01.548Z,651.00
2023-04-26T07:02:01.664Z,642.00
2023-04-26T07:03:01.657Z,633.00
2023-04-26T07:04:01.687Z,628.00
2023-04-26T07:05:01.823Z,617.00
2023-04-26T07:06:01.518Z,615.00
2023-04-26T07:07:01.555Z,612.00
2023-04-26T07:08:01.612Z,615.00
2023-04-26T07:09:01.745Z,617.00
2023-04-26T07:10:01.548Z,617.00
2023-04-26T07:11:01.565Z,613.00
2023-04-26T07:12:01.547Z,610.00
2023-04-26T07:13:01.574Z,611.00
2023-04-26T07:14:01.583Z,609.00
2023-04-26T07:15:01.646Z,607.00
2023-04-26T07:16:01.686Z,604.00
2023-04-26T07:17:01.803Z,607.00
2023-04-26T07:18:01.811Z,601.00
2023-04-26T07:19:01.728Z,596.00
2023-04-26T07:20:01.781Z,598.00
2023-04-26T07:21:01.727Z,599.00
2023-04-26T07:22:01.768Z,602.00
2023-04-26T07:23:01.789Z,618.00
2023-04-26T07:24:01.780Z,618.00
2023-04-26T07:25:01.769Z,618.00
2023-04-26T07:26:01.777Z,613.00
2023-04-26T07:27:01.812Z,602.00
2023-04-26T07:28:01.826Z,593.00
2023-04-26T07:29:02.025Z,592.00
2023-04-26T07:30:02.004Z,597.00
2023-04-26T07:31:01.784Z,607.00
2023-04-26T07:32:01.842Z,668.00
2023-04-26T07:33:02.002Z,678.00
2023-04-26T07:34:01.816Z,714.00
2023-04-26T07:35:02.026Z,726.00
2023-04-26T07:36:01.889Z,725.00
2023-04-26T07:37:01.904Z,726.00
2023-04-26T07:38:02.076Z,796.00
2023-04-26T07:39:01.982Z,783.00
2023-04-26T07:40:02.176Z,778.00
2023-04-26T07:41:02.064Z,780.00
2023-04-26T07:42:02.223Z,777.00
2023-04-26T07:43:02.327Z,777.00
2023-04-26T07:44:02.259Z,774.00
2023-04-26T07:45:02.363Z,778.00
2023-04-26T07:46:02.456Z,839.00
2023-04-26T07:47:02.597Z,908.00
2023-04-26T07:48:02.619Z,897.00
2023-04-26T07:49:02.637Z,928.00
2023-04-26T07:50:02.685Z,938.00
2023-04-26T07:51:02.710Z,937.00
2023-04-26T07:52:02.812Z,934.00
2023-04-26T07:53:02.813Z,885.00
2023-04-26T07:54:03.001Z,900.00
2023-04-26T07:55:02.987Z,913.00
2023-04-26T07:56:03.045Z,950.00
2023-04-26T07:57:03.118Z,956.00
2023-04-26T07:58:03.190Z,993.00
2023-04-26T07:59:03.631Z,998.00
2023-04-26T08:00:03.233Z,1011.00
2023-04-26T08:01:03.290Z,1043.00
2023-04-26T08:02:03.497Z,1081.00
2023-04-26T08:03:03.870Z,1095.00
2023-04-26T08:04:03.852Z,1109.00
2023-04-26T08:05:03.705Z,1120.00
2023-04-26T08:06:03.663Z,1127.00
2023-04-26T08:07:03.484Z,1140.00
2023-04-26T08:08:03.596Z,1143.00
2023-04-26T08:09:03.558Z,1158.00
2023-04-26T08:10:03.707Z,1165.00
2023-04-26T08:11:03.721Z,1176.00
2023-04-26T08:12:03.767Z,1179.00
2023-04-26T08:13:03.659Z,1164.00
2023-04-26T08:14:03.675Z,1169.00
2023-04-26T08:15:03.754Z,1183.00
2023-04-26T08:16:03.690Z,1188.00
2023-04-26T08:17:03.807Z,1191.00
2023-04-26T08:18:03.717Z,1196.00
2023-04-26T08:19:03.839Z,1207.00
2023-04-26T08:20:03.673Z,1227.00
2023-04-26T08:21:03.692Z,1237.00
2023-04-26T08:22:03.732Z,1259.00
2023-04-26T08:23:03.698Z,1291.00
2023-04-26T08:24:04.045Z,1305.00
2023-04-26T08:25:04.503Z,1290.00
2023-04-26T08:26:04.052Z,1113.00
2023-04-26T08:27:03.703Z,1145.00
2023-04-26T08:28:03.719Z,1058.00
2023-04-26T08:29:03.738Z,796.00
2023-04-26T08:30:03.795Z,792.00
2023-04-26T08:31:03.889Z,756.00
2023-04-26T08:32:03.879Z,643.00
2023-04-26T08:33:04.000Z,645.00
2023-04-26T08:34:03.907Z,589.00
2023-04-26T08:35:03.956Z,550.00
2023-04-26T08:36:03.978Z,546.00
2023-04-26T08:37:04.042Z,539.00
2023-04-26T08:38:04.139Z,532.00
2023-04-26T08:39:04.103Z,524.00
2023-04-26T08:40:04.096Z,523.00
2023-04-26T08:41:04.519Z,514.00
2023-04-26T08:42:04.094Z,513.00
2023-04-26T08:43:04.099Z,516.00
2023-04-26T08:44:04.169Z,581.00
2023-04-26T08:45:04.303Z,580.00
2023-04-26T08:46:04.603Z,592.00
2023-04-26T08:47:04.274Z,662.00
2023-04-26T08:48:04.896Z,675.00
2023-04-26T08:49:04.374Z,728.00
2023-04-26T08:50:04.412Z,827.00
2023-04-26T08:51:04.389Z,811.00
2023-04-26T08:52:04.392Z,804.00
2023-04-26T08:53:04.430Z,810.00
2023-04-26T08:54:05.078Z,819.00
2023-04-26T08:55:04.669Z,852.00
2023-04-26T08:56:04.627Z,869.00
2023-04-26T08:57:04.763Z,884.00
2023-04-26T08:58:04.651Z,903.00
2023-04-26T08:59:04.709Z,924.00
2023-04-26T09:00:04.761Z,940.00
2023-04-26T09:01:04.885Z,941.00
2023-04-26T09:02:04.837Z,1055.00
2023-04-26T09:03:04.815Z,1023.00
2023-04-26T09:04:04.854Z,992.00
2023-04-26T09:05:05.061Z,974.00
2023-04-26T09:06:04.776Z,967.00
2023-04-26T09:07:04.847Z,966.00
2023-04-26T09:08:04.865Z,966.00
2023-04-26T09:09:05.049Z,966.00
2023-04-26T09:10:04.999Z,966.00
2023-04-26T09:11:05.037Z,969.00
2023-04-26T09:12:05.102Z,972.00
2023-04-26T09:13:05.178Z,981.00
2023-04-26T09:14:05.193Z,1008.00
2023-04-26T09:15:05.267Z,1049.00
2023-04-26T09:16:05.429Z,1081.00
2023-04-26T09:17:05.293Z,1080.00
2023-04-26T09:18:05.348Z,1078.00
2023-04-26T09:19:05.346Z,1084.00
2023-04-26T09:20:07.686Z,1095.00
2023-04-26T09:21:05.663Z,1104.00
2023-04-26T09:22:05.630Z,1099.00
2023-04-26T09:23:05.633Z,1099.00
2023-04-26T09:24:05.661Z,1104.00
2023-04-26T09:25:05.674Z,1107.00
2023-04-26T09:26:05.688Z,1111.00
2023-04-26T09:27:05.700Z,1116.00
2023-04-26T09:28:05.721Z,1124.00
2023-04-26T09:29:06.013Z,1130.00
2023-04-26T09:30:06.029Z,1141.00
2023-04-26T09:31:05.739Z,1129.00
2023-04-26T09:32:05.730Z,992.00
2023-04-26T09:33:05.891Z,915.00
2023-04-26T09:34:05.791Z,822.00
2023-04-26T09:35:06.098Z,828.00
2023-04-26T09:36:06.050Z,830.00
2023-04-26T09:37:05.893Z,864.00
2023-04-26T09:38:10.547Z,858.00
2023-04-26T09:39:06.885Z,908.00
2023-04-26T09:40:05.883Z,960.00
2023-04-26T09:41:06.561Z,990.00
2023-04-26T09:42:05.875Z,997.00
2023-04-26T09:43:05.977Z,1006.00
2023-04-26T09:44:05.823Z,1024.00
2023-04-26T09:45:06.119Z,1028.00
2023-04-26T09:46:06.645Z,1041.00
2023-04-26T09:47:06.003Z,1053.00
2023-04-26T09:48:05.907Z,1075.00
2023-04-26T09:49:05.922Z,1092.00
2023-04-26T09:50:05.934Z,1075.00
2023-04-26T09:51:05.798Z,1071.00
2023-04-26T09:52:05.848Z,1109.00
2023-04-26T09:53:05.768Z,1101.00
2023-04-26T09:54:05.814Z,1100.00
2023-04-26T09:55:05.854Z,1146.00
2023-04-26T09:56:05.889Z,1137.00
2023-04-26T09:57:05.877Z,1137.00
2023-04-26T09:58:05.995Z,1132.00
2023-04-26T09:59:05.962Z,1120.00
2023-04-26T10:00:05.979Z,1205.00
2023-04-26T10:01:05.983Z,1194.00
2023-04-26T10:02:05.957Z,1172.00
2023-04-26T10:03:06.000Z,1164.00
2023-04-26T10:04:06.258Z,1158.00
2023-04-26T10:05:05.961Z,1168.00
2023-04-26T10:06:05.985Z,1174.00
2023-04-26T10:07:06.137Z,1176.00
2023-04-26T10:08:06.121Z,1170.00
2023-04-26T10:09:06.160Z,1172.00
2023-04-26T10:10:06.300Z,1184.00
2023-04-26T10:11:06.241Z,1219.00
2023-04-26T10:12:06.319Z,1244.00
2023-04-26T10:13:06.390Z,1251.00
2023-04-26T10:14:06.519Z,1246.00
2023-04-26T10:15:06.501Z,1255.00
2023-04-26T10:16:06.859Z,1251.00
2023-04-26T10:17:06.628Z,1248.00
2023-04-26T10:18:06.785Z,1244.00
2023-04-26T10:19:06.763Z,1252.00
2023-04-26T10:20:06.787Z,1256.00
2023-04-26T10:21:06.866Z,1265.00
2023-04-26T10:22:06.946Z,1272.00
2023-04-26T10:23:07.103Z,1284.00
2023-04-26T10:24:07.092Z,1294.00
2023-04-26T10:25:07.559Z,1293.00
2023-04-26T10:26:08.221Z,1297.00
2023-04-26T10:27:08.197Z,1287.00
2023-04-26T10:28:08.051Z,1283.00
2023-04-26T10:29:07.536Z,1363.00
2023-04-26T10:30:07.351Z,1281.00
2023-04-26T10:31:08.212Z,1128.00
2023-04-26T10:32:07.597Z,1102.00
2023-04-26T10:33:07.691Z,1117.00
2023-04-26T10:34:07.661Z,1115.00
2023-04-26T10:35:08.067Z,1123.00
2023-04-26T10:36:07.706Z,1127.00
2023-04-26T10:37:07.767Z,1174.00
2023-04-26T10:38:08.177Z,1207.00
2023-04-26T10:39:08.545Z,1243.00
2023-04-26T10:40:08.154Z,1242.00
2023-04-26T10:41:08.664Z,1229.00
2023-04-26T10:42:08.037Z,1227.00
2023-04-26T10:43:08.062Z,1232.00
2023-04-26T10:44:08.150Z,1234.00
2023-04-26T10:45:08.147Z,1244.00
2023-04-26T10:46:08.274Z,1248.00
2023-04-26T10:47:09.096Z,1252.00
2023-04-26T10:48:08.347Z,1260.00
2023-04-26T10:49:08.350Z,1264.00
2023-04-26T10:50:08.382Z,1279.00
2023-04-26T10:51:08.351Z,1313.00
2023-04-26T10:52:10.080Z,1315.00
2023-04-26T10:53:08.384Z,1317.00
2023-04-26T10:54:08.429Z,1318.00
2023-04-26T10:55:08.520Z,1328.00
2023-04-26T10:56:08.467Z,1338.00
2023-04-26T10:57:08.471Z,1352.00
2023-04-26T10:58:08.539Z,1358.00
2023-04-26T10:59:30.662Z,1369.00
2023-04-26T11:00:09.522Z,1376.00
2023-04-26T11:01:08.538Z,1394.00
2023-04-26T11:02:08.574Z,1409.00
2023-04-26T11:03:08.642Z,1414.00
2023-04-26T11:04:08.634Z,1422.00
2023-04-26T11:05:08.642Z,1444.00
2023-04-26T11:06:08.503Z,1452.00
2023-04-26T11:07:09.148Z,1458.00
2023-04-26T11:08:08.452Z,1460.00
2023-04-26T11:09:08.446Z,1457.00
2023-04-26T11:10:08.468Z,1462.00
2023-04-26T11:11:08.532Z,1466.00
2023-04-26T11:12:08.900Z,1466.00
2023-04-26T11:13:08.383Z,1479.00
2023-04-26T11:14:08.585Z,1489.00
2023-04-26T11:15:08.400Z,1488.00
2023-04-26T11:16:08.464Z,1490.00
2023-04-26T11:17:08.828Z,1497.00
2023-04-26T11:18:08.460Z,1489.00
2023-04-26T11:19:08.352Z,1496.00
2023-04-26T11:20:08.365Z,1436.00
2023-04-26T11:21:08.410Z,1066.00
2023-04-26T11:22:08.353Z,1180.00
2023-04-26T11:23:08.422Z,1208.00
2023-04-26T11:24:08.353Z,1222.00
2023-04-26T11:25:08.341Z,1229.00
2023-04-26T11:26:08.583Z,1231.00
2023-04-26T11:27:08.385Z,1225.00
2023-04-26T11:28:08.306Z,1225.00
2023-04-26T11:29:08.314Z,1151.00
2023-04-26T11:30:08.321Z,1153.00
2023-04-26T11:31:08.399Z,1169.00
2023-04-26T11:32:08.414Z,1168.00
2023-04-26T11:33:08.443Z,1158.00
2023-04-26T11:34:08.405Z,1096.00
2023-04-26T11:35:08.479Z,1099.00
2023-04-26T11:36:08.545Z,1091.00
2023-04-26T11:37:08.607Z,1072.00
2023-04-26T11:38:08.611Z,1070.00
2023-04-26T11:39:08.700Z,1003.00
2023-04-26T11:40:08.744Z,1017.00
2023-04-26T11:41:08.773Z,1008.00
2023-04-26T11:42:09.078Z,997.00
2023-04-26T11:43:08.918Z,969.00
2023-04-26T11:44:09.005Z,947.00
2023-04-26T11:45:08.969Z,936.00
2023-04-26T11:46:09.413Z,910.00
2023-04-26T11:47:09.689Z,908.00
2023-04-26T11:48:09.213Z,913.00
2023-04-26T11:49:09.319Z,913.00
2023-04-26T11:50:09.245Z,910.00
2023-04-26T11:51:09.438Z,907.00
2023-04-26T11:52:09.355Z,873.00
2023-04-26T11:53:09.625Z,830.00
2023-04-26T11:54:09.511Z,828.00
2023-04-26T11:55:09.593Z,807.00
2023-04-26T11:56:09.597Z,797.00
2023-04-26T11:57:09.662Z,796.00
2023-04-26T11:58:09.694Z,802.00
2023-04-26T11:59:09.767Z,804.00
2023-04-26T12:00:09.933Z,802.00
2023-04-26T12:01:09.885Z,771.00
2023-04-26T12:02:09.968Z,773.00
2023-04-26T12:03:10.260Z,776.00
2023-04-26T12:04:10.257Z,838.00
2023-04-26T12:05:10.233Z,780.00
2023-04-26T12:06:09.984Z,808.00
2023-04-26T12:07:10.033Z,794.00
2023-04-26T12:08:10.047Z,797.00
2023-04-26T12:09:09.973Z,792.00
2023-04-26T12:10:10.491Z,779.00
2023-04-26T12:11:11.100Z,769.00
2023-04-26T12:12:10.065Z,767.00
2023-04-26T12:13:10.079Z,762.00
2023-04-26T12:14:10.282Z,752.00
2023-04-26T12:15:10.088Z,754.00
2023-04-26T12:16:22.411Z,752.00
2023-04-26T12:17:11.192Z,746.00
2023-04-26T12:18:10.394Z,738.00
2023-04-26T12:19:10.062Z,737.00
2023-04-26T12:20:10.180Z,733.00
2023-04-26T12:21:10.165Z,722.00
2023-04-26T12:22:10.120Z,721.00
2023-04-26T12:23:10.117Z,719.00
2023-04-26T12:24:10.059Z,715.00